sensor_id;sensor_type;location;lat;lon;timestamp;P1;durP1;ratioP1;P2;durP2;ratioP2
75680;SDS011;64294;49.176;16.626;2023-02-28T00:01:42;14.85;;;7.45;;
75680;SDS011;64294;49.176;16.626;2023-02-28T00:04:07;17.90;;;8.10;;
75680;SDS011;64294;49.176;16.626;2023-02-28T00:06:34;16.17;;;7.72;;
75680;SDS011;64294;49.176;16.626;2023-02-28T00:08:59;16.60;;;7.50;;
75680;SDS011;64294;49.176;16.626;2023-02-28T00:11:25;15.43;;;7.18;;
75680;SDS011;64294;49.176;16.626;2023-02-28T00:13:50;15.43;;;6.95;;
75680;SDS011;64294;49.176;16.626;2023-02-28T00:16:17;19.08;;;8.07;;
75680;SDS011;64294;49.176;16.626;2023-02-28T00:18:46;15.52;;;7.70;;
75680;SDS011;64294;49.176;16.626;2023-02-28T00:21:12;16.35;;;7.47;;
75680;SDS011;64294;49.176;16.626;2023-02-28T00:23:38;17.52;;;7.30;;
75680;SDS011;64294;49.176;16.626;2023-02-28T00:26:03;17.45;;;7.45;;
75680;SDS011;64294;49.176;16.626;2023-02-28T00:28:29;18.38;;;7.30;;
75680;SDS011;64294;49.176;16.626;2023-02-28T00:30:54;17.27;;;7.93;;
75680;SDS011;64294;49.176;16.626;2023-02-28T00:33:20;16.65;;;7.43;;
75680;SDS011;64294;49.176;16.626;2023-02-28T00:35:48;14.90;;;6.75;;
75680;SDS011;64294;49.176;16.626;2023-02-28T00:38:14;14.32;;;7.50;;
75680;SDS011;64294;49.176;16.626;2023-02-28T00:40:40;17.58;;;7.78;;
75680;SDS011;64294;49.176;16.626;2023-02-28T00:43:06;18.92;;;7.72;;
75680;SDS011;64294;49.176;16.626;2023-02-28T00:45:31;17.90;;;7.78;;
75680;SDS011;64294;49.176;16.626;2023-02-28T00:48:00;14.43;;;6.93;;
75680;SDS011;64294;49.176;16.626;2023-02-28T00:50:25;17.55;;;7.82;;
75680;SDS011;64294;49.176;16.626;2023-02-28T00:52:51;18.52;;;7.70;;
75680;SDS011;64294;49.176;16.626;2023-02-28T00:55:16;15.98;;;7.35;;
75680;SDS011;64294;49.176;16.626;2023-02-28T00:57:43;16.27;;;7.40;;
75680;SDS011;64294;49.176;16.626;2023-02-28T01:00:09;17.13;;;7.43;;
75680;SDS011;64294;49.176;16.626;2023-02-28T01:02:36;14.45;;;7.25;;
75680;SDS011;64294;49.176;16.626;2023-02-28T01:05:01;19.00;;;7.72;;
75680;SDS011;64294;49.176;16.626;2023-02-28T01:07:26;18.60;;;7.38;;
75680;SDS011;64294;49.176;16.626;2023-02-28T01:09:52;16.58;;;7.70;;
75680;SDS011;64294;49.176;16.626;2023-02-28T01:12:17;17.20;;;7.57;;
75680;SDS011;64294;49.176;16.626;2023-02-28T01:14:42;18.17;;;7.32;;
75680;SDS011;64294;49.176;16.626;2023-02-28T01:17:08;15.55;;;7.72;;
75680;SDS011;64294;49.176;16.626;2023-02-28T01:19:34;17.75;;;7.57;;
75680;SDS011;64294;49.176;16.626;2023-02-28T01:22:01;16.50;;;7.70;;
75680;SDS011;64294;49.176;16.626;2023-02-28T01:24:27;18.73;;;7.35;;
75680;SDS011;64294;49.176;16.626;2023-02-28T01:26:53;17.23;;;7.45;;
75680;SDS011;64294;49.176;16.626;2023-02-28T01:29:18;18.40;;;7.72;;
75680;SDS011;64294;49.176;16.626;2023-02-28T01:31:44;18.75;;;7.85;;
75680;SDS011;64294;49.176;16.626;2023-02-28T01:34:09;20.75;;;8.05;;
75680;SDS011;64294;49.176;16.626;2023-02-28T01:36:34;17.52;;;7.72;;
75680;SDS011;64294;49.176;16.626;2023-02-28T01:39:01;22.33;;;8.35;;
75680;SDS011;64294;49.176;16.626;2023-02-28T01:41:28;18.42;;;7.70;;
75680;SDS011;64294;49.176;16.626;2023-02-28T01:47:06;20.27;;;7.93;;
75680;SDS011;64294;49.176;16.626;2023-02-28T01:49:31;25.60;;;8.45;;
75680;SDS011;64294;49.176;16.626;2023-02-28T01:51:57;21.05;;;7.78;;
75680;SDS011;64294;49.176;16.626;2023-02-28T01:54:31;18.92;;;8.00;;
75680;SDS011;64294;49.176;16.626;2023-02-28T01:57:13;19.25;;;7.80;;
75680;SDS011;64294;49.176;16.626;2023-02-28T01:59:46;19.55;;;8.65;;
75680;SDS011;64294;49.176;16.626;2023-02-28T02:02:17;20.40;;;7.95;;
75680;SDS011;64294;49.176;16.626;2023-02-28T02:04:56;23.55;;;9.65;;
75680;SDS011;64294;49.176;16.626;2023-02-28T02:07:29;18.92;;;7.78;;
75680;SDS011;64294;49.176;16.626;2023-02-28T02:10:03;20.65;;;8.30;;
75680;SDS011;64294;49.176;16.626;2023-02-28T02:15:33;19.52;;;8.52;;
75680;SDS011;64294;49.176;16.626;2023-02-28T02:18:48;24.00;;;8.85;;
75680;SDS011;64294;49.176;16.626;2023-02-28T02:26:58;23.00;;;8.93;;
75680;SDS011;64294;49.176;16.626;2023-02-28T02:33:09;17.95;;;8.70;;
75680;SDS011;64294;49.176;16.626;2023-02-28T02:35:49;16.58;;;7.85;;
75680;SDS011;64294;49.176;16.626;2023-02-28T02:43:37;23.88;;;8.65;;
75680;SDS011;64294;49.176;16.626;2023-02-28T02:46:10;21.27;;;9.43;;
75680;SDS011;64294;49.176;16.626;2023-02-28T02:48:44;20.67;;;8.30;;
75680;SDS011;64294;49.176;16.626;2023-02-28T02:51:12;20.73;;;9.48;;
75680;SDS011;64294;49.176;16.626;2023-02-28T02:53:46;23.30;;;10.07;;
75680;SDS011;64294;49.176;16.626;2023-02-28T02:56:19;21.20;;;8.82;;
75680;SDS011;64294;49.176;16.626;2023-02-28T02:58:50;22.63;;;9.13;;
75680;SDS011;64294;49.176;16.626;2023-02-28T03:01:19;26.42;;;9.60;;
75680;SDS011;64294;49.176;16.626;2023-02-28T03:03:55;20.17;;;9.77;;
75680;SDS011;64294;49.176;16.626;2023-02-28T03:06:40;22.00;;;9.13;;
75680;SDS011;64294;49.176;16.626;2023-02-28T03:09:06;25.70;;;9.50;;
75680;SDS011;64294;49.176;16.626;2023-02-28T03:11:31;24.40;;;9.13;;
75680;SDS011;64294;49.176;16.626;2023-02-28T03:16:57;24.83;;;10.02;;
75680;SDS011;64294;49.176;16.626;2023-02-28T03:31:17;21.80;;;9.63;;
75680;SDS011;64294;49.176;16.626;2023-02-28T03:33:50;23.38;;;9.35;;
75680;SDS011;64294;49.176;16.626;2023-02-28T03:36:39;29.30;;;9.70;;
75680;SDS011;64294;49.176;16.626;2023-02-28T03:39:20;26.92;;;10.55;;
75680;SDS011;64294;49.176;16.626;2023-02-28T03:42:07;24.80;;;9.35;;
75680;SDS011;64294;49.176;16.626;2023-02-28T03:44:38;23.10;;;9.70;;
75680;SDS011;64294;49.176;16.626;2023-02-28T03:47:15;24.73;;;9.55;;
75680;SDS011;64294;49.176;16.626;2023-02-28T03:50:07;27.08;;;9.60;;
75680;SDS011;64294;49.176;16.626;2023-02-28T03:52:46;25.13;;;10.07;;
75680;SDS011;64294;49.176;16.626;2023-02-28T03:55:15;21.27;;;10.23;;
75680;SDS011;64294;49.176;16.626;2023-02-28T04:00:37;24.35;;;10.43;;
75680;SDS011;64294;49.176;16.626;2023-02-28T04:03:08;24.70;;;9.85;;
75680;SDS011;64294;49.176;16.626;2023-02-28T04:05:33;23.23;;;9.85;;
75680;SDS011;64294;49.176;16.626;2023-02-28T04:08:23;24.08;;;9.77;;
75680;SDS011;64294;49.176;16.626;2023-02-28T04:11:01;27.98;;;9.82;;
75680;SDS011;64294;49.176;16.626;2023-02-28T04:13:31;25.85;;;10.38;;
75680;SDS011;64294;49.176;16.626;2023-02-28T04:15:59;23.55;;;10.68;;
75680;SDS011;64294;49.176;16.626;2023-02-28T04:18:25;27.55;;;11.27;;
75680;SDS011;64294;49.176;16.626;2023-02-28T04:20:50;28.33;;;10.00;;
75680;SDS011;64294;49.176;16.626;2023-02-28T04:23:16;24.70;;;10.90;;
75680;SDS011;64294;49.176;16.626;2023-02-28T04:25:41;24.40;;;9.88;;
75680;SDS011;64294;49.176;16.626;2023-02-28T04:28:06;27.23;;;10.55;;
75680;SDS011;64294;49.176;16.626;2023-02-28T04:30:36;29.75;;;10.88;;
75680;SDS011;64294;49.176;16.626;2023-02-28T04:33:02;29.27;;;11.07;;
75680;SDS011;64294;49.176;16.626;2023-02-28T04:35:27;24.35;;;10.60;;
75680;SDS011;64294;49.176;16.626;2023-02-28T04:37:53;24.50;;;10.85;;
75680;SDS011;64294;49.176;16.626;2023-02-28T04:40:18;27.42;;;10.75;;
75680;SDS011;64294;49.176;16.626;2023-02-28T04:42:44;35.70;;;11.73;;
75680;SDS011;64294;49.176;16.626;2023-02-28T04:45:09;32.03;;;10.80;;
75680;SDS011;64294;49.176;16.626;2023-02-28T04:47:35;24.35;;;10.43;;
75680;SDS011;64294;49.176;16.626;2023-02-28T04:50:01;25.23;;;10.90;;
75680;SDS011;64294;49.176;16.626;2023-02-28T04:52:28;23.50;;;10.02;;
75680;SDS011;64294;49.176;16.626;2023-02-28T04:54:53;30.05;;;11.70;;
75680;SDS011;64294;49.176;16.626;2023-02-28T04:57:20;32.47;;;11.27;;
75680;SDS011;64294;49.176;16.626;2023-02-28T04:59:45;27.77;;;11.07;;
75680;SDS011;64294;49.176;16.626;2023-02-28T05:02:10;26.05;;;10.90;;
75680;SDS011;64294;49.176;16.626;2023-02-28T05:04:36;26.23;;;10.70;;
75680;SDS011;64294;49.176;16.626;2023-02-28T05:07:02;30.13;;;11.77;;
75680;SDS011;64294;49.176;16.626;2023-02-28T05:09:28;29.00;;;11.88;;
75680;SDS011;64294;49.176;16.626;2023-02-28T05:12:00;25.48;;;11.45;;
75680;SDS011;64294;49.176;16.626;2023-02-28T05:14:26;28.55;;;11.27;;
75680;SDS011;64294;49.176;16.626;2023-02-28T05:16:51;26.88;;;12.25;;
75680;SDS011;64294;49.176;16.626;2023-02-28T05:19:16;30.90;;;12.02;;
75680;SDS011;64294;49.176;16.626;2023-02-28T05:21:54;30.63;;;11.18;;
75680;SDS011;64294;49.176;16.626;2023-02-28T05:24:20;27.67;;;11.85;;
75680;SDS011;64294;49.176;16.626;2023-02-28T05:26:53;31.48;;;11.50;;
75680;SDS011;64294;49.176;16.626;2023-02-28T05:29:20;29.30;;;11.65;;
75680;SDS011;64294;49.176;16.626;2023-02-28T05:31:46;28.00;;;11.52;;
75680;SDS011;64294;49.176;16.626;2023-02-28T05:34:12;28.23;;;10.75;;
75680;SDS011;64294;49.176;16.626;2023-02-28T05:36:37;28.75;;;12.38;;
75680;SDS011;64294;49.176;16.626;2023-02-28T05:39:06;32.05;;;12.05;;
75680;SDS011;64294;49.176;16.626;2023-02-28T05:41:37;29.63;;;11.90;;
75680;SDS011;64294;49.176;16.626;2023-02-28T05:44:03;27.52;;;11.43;;
75680;SDS011;64294;49.176;16.626;2023-02-28T05:46:28;30.40;;;11.88;;
75680;SDS011;64294;49.176;16.626;2023-02-28T05:48:54;28.77;;;11.48;;
75680;SDS011;64294;49.176;16.626;2023-02-28T05:51:20;27.33;;;11.75;;
75680;SDS011;64294;49.176;16.626;2023-02-28T05:53:46;34.25;;;12.23;;
75680;SDS011;64294;49.176;16.626;2023-02-28T05:56:13;32.08;;;13.63;;
75680;SDS011;64294;49.176;16.626;2023-02-28T05:58:38;30.08;;;12.07;;
75680;SDS011;64294;49.176;16.626;2023-02-28T06:01:20;27.40;;;12.05;;
75680;SDS011;64294;49.176;16.626;2023-02-28T06:03:46;30.92;;;12.15;;
75680;SDS011;64294;49.176;16.626;2023-02-28T06:06:15;31.85;;;11.77;;
75680;SDS011;64294;49.176;16.626;2023-02-28T06:08:45;28.77;;;11.45;;
75680;SDS011;64294;49.176;16.626;2023-02-28T06:11:10;31.95;;;12.68;;
75680;SDS011;64294;49.176;16.626;2023-02-28T06:13:36;24.95;;;12.00;;
75680;SDS011;64294;49.176;16.626;2023-02-28T06:16:01;28.77;;;11.10;;
75680;SDS011;64294;49.176;16.626;2023-02-28T06:18:27;28.67;;;12.05;;
75680;SDS011;64294;49.176;16.626;2023-02-28T06:20:53;27.08;;;11.40;;
75680;SDS011;64294;49.176;16.626;2023-02-28T06:23:22;28.77;;;12.45;;
75680;SDS011;64294;49.176;16.626;2023-02-28T06:25:47;34.33;;;12.40;;
75680;SDS011;64294;49.176;16.626;2023-02-28T06:28:14;31.92;;;11.75;;
75680;SDS011;64294;49.176;16.626;2023-02-28T06:30:40;25.75;;;12.00;;
75680;SDS011;64294;49.176;16.626;2023-02-28T06:33:05;30.67;;;12.38;;
75680;SDS011;64294;49.176;16.626;2023-02-28T06:35:31;26.27;;;12.43;;
75680;SDS011;64294;49.176;16.626;2023-02-28T06:37:56;27.27;;;11.45;;
75680;SDS011;64294;49.176;16.626;2023-02-28T06:40:22;24.73;;;12.25;;
75680;SDS011;64294;49.176;16.626;2023-02-28T06:42:48;29.80;;;12.48;;
75680;SDS011;64294;49.176;16.626;2023-02-28T06:45:13;28.60;;;12.15;;
75680;SDS011;64294;49.176;16.626;2023-02-28T06:47:39;28.35;;;13.35;;
75680;SDS011;64294;49.176;16.626;2023-02-28T06:50:06;26.38;;;13.80;;
75680;SDS011;64294;49.176;16.626;2023-02-28T06:52:36;27.88;;;14.05;;
75680;SDS011;64294;49.176;16.626;2023-02-28T06:55:03;29.17;;;12.88;;
75680;SDS011;64294;49.176;16.626;2023-02-28T06:57:32;27.70;;;13.05;;
75680;SDS011;64294;49.176;16.626;2023-02-28T07:00:00;30.10;;;13.45;;
75680;SDS011;64294;49.176;16.626;2023-02-28T07:02:28;28.58;;;13.60;;
75680;SDS011;64294;49.176;16.626;2023-02-28T07:04:53;29.05;;;13.07;;
75680;SDS011;64294;49.176;16.626;2023-02-28T07:07:19;25.20;;;13.27;;
75680;SDS011;64294;49.176;16.626;2023-02-28T07:09:45;24.05;;;13.50;;
75680;SDS011;64294;49.176;16.626;2023-02-28T07:12:10;20.77;;;12.85;;
75680;SDS011;64294;49.176;16.626;2023-02-28T07:14:38;26.70;;;12.68;;
75680;SDS011;64294;49.176;16.626;2023-02-28T07:17:04;25.98;;;12.85;;
75680;SDS011;64294;49.176;16.626;2023-02-28T07:19:37;25.15;;;12.55;;
75680;SDS011;64294;49.176;16.626;2023-02-28T07:22:07;24.67;;;13.25;;
75680;SDS011;64294;49.176;16.626;2023-02-28T07:24:35;22.55;;;12.70;;
75680;SDS011;64294;49.176;16.626;2023-02-28T07:27:01;23.73;;;13.00;;
75680;SDS011;64294;49.176;16.626;2023-02-28T07:29:26;26.35;;;13.25;;
75680;SDS011;64294;49.176;16.626;2023-02-28T07:31:52;29.63;;;12.55;;
75680;SDS011;64294;49.176;16.626;2023-02-28T07:34:18;23.50;;;12.27;;
75680;SDS011;64294;49.176;16.626;2023-02-28T07:36:47;25.73;;;12.65;;
75680;SDS011;64294;49.176;16.626;2023-02-28T07:39:13;22.98;;;12.23;;
75680;SDS011;64294;49.176;16.626;2023-02-28T07:41:38;21.17;;;11.82;;
75680;SDS011;64294;49.176;16.626;2023-02-28T07:44:09;25.83;;;11.82;;
75680;SDS011;64294;49.176;16.626;2023-02-28T07:46:38;25.63;;;11.30;;
75680;SDS011;64294;49.176;16.626;2023-02-28T07:49:05;23.95;;;11.73;;
75680;SDS011;64294;49.176;16.626;2023-02-28T07:51:31;23.08;;;11.23;;
75680;SDS011;64294;49.176;16.626;2023-02-28T07:53:56;27.02;;;11.80;;
75680;SDS011;64294;49.176;16.626;2023-02-28T07:56:22;22.70;;;11.95;;
75680;SDS011;64294;49.176;16.626;2023-02-28T07:58:50;22.17;;;11.60;;
75680;SDS011;64294;49.176;16.626;2023-02-28T08:01:16;25.75;;;11.10;;
75680;SDS011;64294;49.176;16.626;2023-02-28T08:03:43;24.00;;;10.48;;
75680;SDS011;64294;49.176;16.626;2023-02-28T08:06:16;22.80;;;10.82;;
75680;SDS011;64294;49.176;16.626;2023-02-28T08:08:43;21.65;;;10.15;;
75680;SDS011;64294;49.176;16.626;2023-02-28T08:11:10;21.58;;;10.10;;
75680;SDS011;64294;49.176;16.626;2023-02-28T08:13:37;22.45;;;11.23;;
75680;SDS011;64294;49.176;16.626;2023-02-28T08:16:02;20.33;;;9.90;;
75680;SDS011;64294;49.176;16.626;2023-02-28T08:18:28;20.20;;;10.30;;
75680;SDS011;64294;49.176;16.626;2023-02-28T08:20:53;27.17;;;10.65;;
75680;SDS011;64294;49.176;16.626;2023-02-28T08:23:18;26.42;;;11.13;;
75680;SDS011;64294;49.176;16.626;2023-02-28T08:25:44;23.33;;;10.45;;
75680;SDS011;64294;49.176;16.626;2023-02-28T08:28:10;21.13;;;10.88;;
75680;SDS011;64294;49.176;16.626;2023-02-28T08:30:35;17.52;;;9.60;;
75680;SDS011;64294;49.176;16.626;2023-02-28T08:33:01;20.08;;;9.63;;
75680;SDS011;64294;49.176;16.626;2023-02-28T08:35:27;22.27;;;10.23;;
75680;SDS011;64294;49.176;16.626;2023-02-28T08:37:52;21.25;;;10.10;;
75680;SDS011;64294;49.176;16.626;2023-02-28T08:40:18;20.70;;;9.63;;
75680;SDS011;64294;49.176;16.626;2023-02-28T08:42:44;20.35;;;9.75;;
75680;SDS011;64294;49.176;16.626;2023-02-28T08:45:11;21.85;;;10.38;;
75680;SDS011;64294;49.176;16.626;2023-02-28T08:47:37;20.02;;;9.98;;
75680;SDS011;64294;49.176;16.626;2023-02-28T08:50:03;20.05;;;9.77;;
75680;SDS011;64294;49.176;16.626;2023-02-28T08:52:29;20.00;;;9.73;;
75680;SDS011;64294;49.176;16.626;2023-02-28T08:54:54;19.67;;;10.20;;
75680;SDS011;64294;49.176;16.626;2023-02-28T08:57:20;20.77;;;10.10;;
75680;SDS011;64294;49.176;16.626;2023-02-28T08:59:45;19.05;;;9.55;;
75680;SDS011;64294;49.176;16.626;2023-02-28T09:02:12;19.27;;;10.93;;
75680;SDS011;64294;49.176;16.626;2023-02-28T09:04:38;20.80;;;9.70;;
75680;SDS011;64294;49.176;16.626;2023-02-28T09:07:03;17.40;;;9.75;;
75680;SDS011;64294;49.176;16.626;2023-02-28T09:09:30;19.70;;;10.20;;
75680;SDS011;64294;49.176;16.626;2023-02-28T09:11:56;21.33;;;10.25;;
75680;SDS011;64294;49.176;16.626;2023-02-28T09:14:24;21.67;;;10.80;;
75680;SDS011;64294;49.176;16.626;2023-02-28T09:16:50;19.45;;;9.07;;
75680;SDS011;64294;49.176;16.626;2023-02-28T09:19:16;17.80;;;9.90;;
75680;SDS011;64294;49.176;16.626;2023-02-28T09:21:41;18.13;;;10.00;;
75680;SDS011;64294;49.176;16.626;2023-02-28T09:24:06;17.65;;;10.30;;
75680;SDS011;64294;49.176;16.626;2023-02-28T09:26:33;20.45;;;9.48;;
75680;SDS011;64294;49.176;16.626;2023-02-28T09:28:59;18.08;;;9.80;;
75680;SDS011;64294;49.176;16.626;2023-02-28T09:31:28;18.58;;;10.05;;
75680;SDS011;64294;49.176;16.626;2023-02-28T09:33:55;17.58;;;9.55;;
75680;SDS011;64294;49.176;16.626;2023-02-28T09:36:22;19.88;;;9.75;;
75680;SDS011;64294;49.176;16.626;2023-02-28T09:38:49;15.80;;;9.80;;
75680;SDS011;64294;49.176;16.626;2023-02-28T09:41:20;16.20;;;9.80;;
75680;SDS011;64294;49.176;16.626;2023-02-28T09:43:47;18.17;;;12.00;;
75680;SDS011;64294;49.176;16.626;2023-02-28T09:49:11;16.05;;;11.13;;
75680;SDS011;64294;49.176;16.626;2023-02-28T09:54:14;17.13;;;10.55;;
75680;SDS011;64294;49.176;16.626;2023-02-28T09:56:45;20.58;;;11.50;;
75680;SDS011;64294;49.176;16.626;2023-02-28T09:59:36;16.67;;;11.63;;
75680;SDS011;64294;49.176;16.626;2023-02-28T10:05:09;18.98;;;11.10;;
75680;SDS011;64294;49.176;16.626;2023-02-28T10:10:20;18.95;;;11.40;;
75680;SDS011;64294;49.176;16.626;2023-02-28T10:12:51;16.27;;;10.77;;
75680;SDS011;64294;49.176;16.626;2023-02-28T10:15:18;16.02;;;10.50;;
75680;SDS011;64294;49.176;16.626;2023-02-28T10:17:53;17.67;;;11.43;;
75680;SDS011;64294;49.176;16.626;2023-02-28T10:20:26;18.67;;;11.73;;
75680;SDS011;64294;49.176;16.626;2023-02-28T10:25:36;15.73;;;11.70;;
75680;SDS011;64294;49.176;16.626;2023-02-28T10:28:13;16.25;;;11.85;;
75680;SDS011;64294;49.176;16.626;2023-02-28T10:30:41;17.50;;;11.55;;
75680;SDS011;64294;49.176;16.626;2023-02-28T10:33:17;14.23;;;10.30;;
75680;SDS011;64294;49.176;16.626;2023-02-28T10:35:54;16.23;;;10.90;;
75680;SDS011;64294;49.176;16.626;2023-02-28T10:39:02;15.18;;;11.15;;
75680;SDS011;64294;49.176;16.626;2023-02-28T10:41:10;15.27;;;10.90;;
75680;SDS011;64294;49.176;16.626;2023-02-28T10:43:41;17.60;;;12.07;;
75680;SDS011;64294;49.176;16.626;2023-02-28T10:51:14;63.63;;;14.68;;
75680;SDS011;64294;49.176;16.626;2023-02-28T10:53:52;19.08;;;12.68;;
75680;SDS011;64294;49.176;16.626;2023-02-28T10:56:20;17.85;;;12.25;;
75680;SDS011;64294;49.176;16.626;2023-02-28T11:01:17;16.70;;;12.25;;
75680;SDS011;64294;49.176;16.626;2023-02-28T11:03:44;16.95;;;11.70;;
75680;SDS011;64294;49.176;16.626;2023-02-28T11:06:15;16.98;;;11.85;;
75680;SDS011;64294;49.176;16.626;2023-02-28T11:08:52;17.52;;;12.05;;
75680;SDS011;64294;49.176;16.626;2023-02-28T11:11:22;17.25;;;11.43;;
75680;SDS011;64294;49.176;16.626;2023-02-28T11:13:51;15.38;;;11.25;;
75680;SDS011;64294;49.176;16.626;2023-02-28T11:16:20;16.30;;;11.52;;
75680;SDS011;64294;49.176;16.626;2023-02-28T11:18:53;19.77;;;12.15;;
75680;SDS011;64294;49.176;16.626;2023-02-28T11:24:28;15.32;;;10.82;;
75680;SDS011;64294;49.176;16.626;2023-02-28T11:26:59;17.02;;;11.05;;
75680;SDS011;64294;49.176;16.626;2023-02-28T11:34:30;17.77;;;11.50;;
75680;SDS011;64294;49.176;16.626;2023-02-28T11:36:59;17.40;;;10.80;;
75680;SDS011;64294;49.176;16.626;2023-02-28T11:39:26;17.60;;;11.15;;
75680;SDS011;64294;49.176;16.626;2023-02-28T11:47:17;15.40;;;10.73;;
75680;SDS011;64294;49.176;16.626;2023-02-28T11:53:02;17.38;;;10.25;;
75680;SDS011;64294;49.176;16.626;2023-02-28T11:55:49;16.27;;;10.97;;
75680;SDS011;64294;49.176;16.626;2023-02-28T12:09:39;14.03;;;10.33;;
75680;SDS011;64294;49.176;16.626;2023-02-28T12:28:47;16.67;;;10.77;;
75680;SDS011;64294;49.176;16.626;2023-02-28T12:33:56;16.85;;;10.20;;
75680;SDS011;64294;49.176;16.626;2023-02-28T12:36:26;16.40;;;11.10;;
75680;SDS011;64294;49.176;16.626;2023-02-28T12:38:58;16.80;;;10.95;;
75680;SDS011;64294;49.176;16.626;2023-02-28T12:44:23;16.30;;;11.48;;
75680;SDS011;64294;49.176;16.626;2023-02-28T12:46:57;19.65;;;11.38;;
75680;SDS011;64294;49.176;16.626;2023-02-28T12:49:33;16.58;;;10.70;;
75680;SDS011;64294;49.176;16.626;2023-02-28T12:52:04;18.05;;;11.52;;
75680;SDS011;64294;49.176;16.626;2023-02-28T12:57:06;20.90;;;12.05;;
75680;SDS011;64294;49.176;16.626;2023-02-28T13:02:09;19.95;;;11.32;;
75680;SDS011;64294;49.176;16.626;2023-02-28T13:10:49;18.88;;;11.30;;
75680;SDS011;64294;49.176;16.626;2023-02-28T13:13:20;22.63;;;12.32;;
75680;SDS011;64294;49.176;16.626;2023-02-28T13:18:31;21.00;;;11.45;;
75680;SDS011;64294;49.176;16.626;2023-02-28T13:20:57;19.52;;;11.00;;
75680;SDS011;64294;49.176;16.626;2023-02-28T13:24:07;20.10;;;11.60;;
75680;SDS011;64294;49.176;16.626;2023-02-28T13:29:00;19.58;;;10.63;;
75680;SDS011;64294;49.176;16.626;2023-02-28T13:31:27;18.80;;;11.13;;
75680;SDS011;64294;49.176;16.626;2023-02-28T13:39:03;20.15;;;11.07;;
75680;SDS011;64294;49.176;16.626;2023-02-28T13:47:38;20.25;;;11.25;;
75680;SDS011;64294;49.176;16.626;2023-02-28T14:01:12;20.90;;;12.65;;
75680;SDS011;64294;49.176;16.626;2023-02-28T14:06:52;18.20;;;11.18;;
75680;SDS011;64294;49.176;16.626;2023-02-28T14:12:50;19.00;;;11.43;;
75680;SDS011;64294;49.176;16.626;2023-02-28T14:15:02;21.33;;;12.50;;
75680;SDS011;64294;49.176;16.626;2023-02-28T14:17:30;19.95;;;10.90;;
75680;SDS011;64294;49.176;16.626;2023-02-28T14:19:58;20.35;;;11.68;;
75680;SDS011;64294;49.176;16.626;2023-02-28T14:22:39;18.45;;;10.30;;
75680;SDS011;64294;49.176;16.626;2023-02-28T14:25:18;18.70;;;11.30;;
75680;SDS011;64294;49.176;16.626;2023-02-28T14:28:09;22.30;;;11.27;;
75680;SDS011;64294;49.176;16.626;2023-02-28T14:30:56;19.10;;;11.95;;
75680;SDS011;64294;49.176;16.626;2023-02-28T14:36:42;19.45;;;11.05;;
75680;SDS011;64294;49.176;16.626;2023-02-28T14:39:13;19.08;;;10.82;;
75680;SDS011;64294;49.176;16.626;2023-02-28T14:41:44;19.77;;;11.02;;
75680;SDS011;64294;49.176;16.626;2023-02-28T14:44:18;17.15;;;10.40;;
75680;SDS011;64294;49.176;16.626;2023-02-28T14:46:47;20.13;;;11.82;;
75680;SDS011;64294;49.176;16.626;2023-02-28T14:54:36;21.90;;;10.13;;
75680;SDS011;64294;49.176;16.626;2023-02-28T14:57:03;20.48;;;10.65;;
75680;SDS011;64294;49.176;16.626;2023-02-28T14:59:33;19.67;;;11.13;;
75680;SDS011;64294;49.176;16.626;2023-02-28T15:04:53;19.13;;;10.68;;
75680;SDS011;64294;49.176;16.626;2023-02-28T15:07:24;18.58;;;10.80;;
75680;SDS011;64294;49.176;16.626;2023-02-28T15:10:10;19.17;;;11.20;;
75680;SDS011;64294;49.176;16.626;2023-02-28T15:13:07;19.98;;;10.98;;
75680;SDS011;64294;49.176;16.626;2023-02-28T15:15:55;22.73;;;10.80;;
75680;SDS011;64294;49.176;16.626;2023-02-28T15:21:08;21.02;;;11.77;;
75680;SDS011;64294;49.176;16.626;2023-02-28T15:23:37;21.92;;;11.23;;
75680;SDS011;64294;49.176;16.626;2023-02-28T15:26:11;23.10;;;11.00;;
75680;SDS011;64294;49.176;16.626;2023-02-28T15:28:41;18.95;;;10.70;;
75680;SDS011;64294;49.176;16.626;2023-02-28T15:31:18;20.27;;;10.68;;
75680;SDS011;64294;49.176;16.626;2023-02-28T15:36:46;20.10;;;10.93;;
75680;SDS011;64294;49.176;16.626;2023-02-28T15:39:46;20.67;;;10.60;;
75680;SDS011;64294;49.176;16.626;2023-02-28T15:42:10;22.92;;;9.75;;
75680;SDS011;64294;49.176;16.626;2023-02-28T15:44:47;18.65;;;10.70;;
75680;SDS011;64294;49.176;16.626;2023-02-28T15:47:19;20.63;;;10.57;;
75680;SDS011;64294;49.176;16.626;2023-02-28T15:49:51;20.98;;;10.55;;
75680;SDS011;64294;49.176;16.626;2023-02-28T15:52:24;23.02;;;10.07;;
75680;SDS011;64294;49.176;16.626;2023-02-28T15:55:32;18.27;;;9.68;;
75680;SDS011;64294;49.176;16.626;2023-02-28T15:58:00;20.98;;;9.38;;
75680;SDS011;64294;49.176;16.626;2023-02-28T16:00:35;22.35;;;10.35;;
75680;SDS011;64294;49.176;16.626;2023-02-28T16:03:23;15.95;;;9.27;;
75680;SDS011;64294;49.176;16.626;2023-02-28T16:06:07;19.98;;;9.85;;
75680;SDS011;64294;49.176;16.626;2023-02-28T16:08:34;21.35;;;9.57;;
75680;SDS011;64294;49.176;16.626;2023-02-28T16:10:59;19.70;;;10.68;;
75680;SDS011;64294;49.176;16.626;2023-02-28T16:13:25;22.65;;;10.48;;
75680;SDS011;64294;49.176;16.626;2023-02-28T16:15:50;21.95;;;10.93;;
75680;SDS011;64294;49.176;16.626;2023-02-28T16:18:16;19.90;;;10.52;;
75680;SDS011;64294;49.176;16.626;2023-02-28T16:20:42;16.73;;;9.48;;
75680;SDS011;64294;49.176;16.626;2023-02-28T16:23:09;18.33;;;8.90;;
75680;SDS011;64294;49.176;16.626;2023-02-28T16:25:36;17.55;;;9.82;;
75680;SDS011;64294;49.176;16.626;2023-02-28T16:28:03;22.48;;;10.50;;
75680;SDS011;64294;49.176;16.626;2023-02-28T16:30:40;20.77;;;10.90;;
75680;SDS011;64294;49.176;16.626;2023-02-28T16:33:09;16.92;;;9.35;;
75680;SDS011;64294;49.176;16.626;2023-02-28T16:35:37;18.95;;;10.57;;
75680;SDS011;64294;49.176;16.626;2023-02-28T16:38:04;22.45;;;11.52;;
75680;SDS011;64294;49.176;16.626;2023-02-28T16:40:31;19.70;;;10.30;;
75680;SDS011;64294;49.176;16.626;2023-02-28T16:42:59;22.10;;;10.57;;
75680;SDS011;64294;49.176;16.626;2023-02-28T16:45:28;21.50;;;10.57;;
75680;SDS011;64294;49.176;16.626;2023-02-28T16:47:54;19.30;;;10.98;;
75680;SDS011;64294;49.176;16.626;2023-02-28T16:50:22;24.77;;;11.00;;
75680;SDS011;64294;49.176;16.626;2023-02-28T16:52:52;40.15;;;19.48;;
75680;SDS011;64294;49.176;16.626;2023-02-28T16:55:19;22.50;;;10.98;;
75680;SDS011;64294;49.176;16.626;2023-02-28T16:57:47;22.90;;;11.15;;
75680;SDS011;64294;49.176;16.626;2023-02-28T17:00:23;24.13;;;11.70;;
75680;SDS011;64294;49.176;16.626;2023-02-28T17:02:52;22.88;;;10.73;;
75680;SDS011;64294;49.176;16.626;2023-02-28T17:05:21;24.00;;;11.32;;
75680;SDS011;64294;49.176;16.626;2023-02-28T17:07:56;19.75;;;10.35;;
75680;SDS011;64294;49.176;16.626;2023-02-28T17:10:28;25.58;;;10.65;;
75680;SDS011;64294;49.176;16.626;2023-02-28T17:12:54;23.33;;;10.50;;
75680;SDS011;64294;49.176;16.626;2023-02-28T17:15:19;23.63;;;12.05;;
75680;SDS011;64294;49.176;16.626;2023-02-28T17:17:45;23.00;;;12.70;;
75680;SDS011;64294;49.176;16.626;2023-02-28T17:20:17;20.98;;;11.70;;